| Date | Time | Temp. (oF) | Dew Point (oF) | Rel. Hum. (%) | Press. (in.) | Wind Dir. | Wind Speed (mph) | Hourly Rainfall (in.) |
|
|---|---|---|---|---|---|---|---|---|---|
| 1 | 07/01 | 00:00 | 72 | 71 | 97 | 29.86 | SW | 0 | 0.00 |
| 2 | 06/30 | 23:00 | 73 | 71 | 96 | 29.85 | WSW | 0 | 0.00 |
| 3 | 06/30 | 22:00 | 75 | 71 | 88 | 29.85 | WSW | 0 | 0.00 |
| 4 | 06/30 | 21:00 | 80 | 71 | 75 | 29.83 | WSW | 2 | 0.00 |
| 5 | 06/30 | 20:00 | 82 | 70 | 69 | 29.81 | W | 4 | 0.00 |
| 6 | 06/30 | 19:00 | 85 | 69 | 61 | 29.79 | NW | 3 | 0.00 |
| 7 | 06/30 | 18:00 | 86 | 69 | 58 | 29.79 | WSW | 3 | 0.00 |
| 8 | 06/30 | 17:00 | 84 | 72 | 68 | 29.81 | SW | 3 | 0.00 |
| 9 | 06/30 | 16:00 | 86 | 71 | 63 | 29.80 | SSW | 6 | 0.00 |
| 10 | 06/30 | 15:00 | 85 | 68 | 59 | 29.81 | SSW | 2 | 0.00 |
| 11 | 06/30 | 14:00 | 89 | 70 | 54 | 29.80 | SSW | 4 | 0.00 |
| 12 | 06/30 | 13:00 | 89 | 72 | 59 | 29.83 | WSW | 3 | 0.00 |
| 13 | 06/30 | 12:00 | 86 | 71 | 62 | 29.84 | ENE | 4 | 0.00 |
| 14 | 06/30 | 11:00 | 84 | 69 | 62 | 29.85 | WSW | 6 | 0.00 |
| 15 | 06/30 | 10:00 | 82 | 70 | 68 | 29.84 | WNW | 4 | 0.00 |
| 16 | 06/30 | 09:00 | 78 | 70 | 78 | 29.86 | NW | 2 | 0.00 |
| 17 | 06/30 | 08:00 | 73 | 72 | 100 | 29.85 | SW | 1 | 0.00 |
| 18 | 06/30 | 07:00 | 70 | 69 | 100 | 29.84 | WSW | 0 | 0.00 |
| 19 | 06/30 | 06:00 | 69 | 68 | 100 | 29.82 | WNW | 0 | 0.00 |
| 20 | 06/30 | 05:00 | 69 | 68 | 100 | 29.81 | SSW | 3 | 0.00 |
| 21 | 06/30 | 04:00 | 69 | 68 | 100 | 29.80 | N | 0 | 0.00 |
| 22 | 06/30 | 03:00 | 70 | 69 | 100 | 29.80 | SSW | 0 | 0.01 |
| 23 | 06/30 | 02:00 | 71 | 71 | 100 | 29.76 | N | 2 | 0.00 |
| 24 | 06/30 | 01:00 | 72 | 72 | 100 | 29.76 | SW | 10 | 0.02 |